Terminal Aerodrome Forecast
Issued by NWS

Home | Current Version | Previous Version | Text Only | Print | Product List | Glossary Off
Versions: 1 2 3 4 5 6 7 8 9 10 11 12 13 14

090
FTUS42 KMHX 191120
TAFISO
TAF
KISO 191120Z 1912/2012 17009KT 5SM SHRA SCT025 OVC035
     FM191400 17009KT 5SM SHRA VCTS BKN040CB
     FM200000 17010KT 5SM -SHRA VCTS BKN020CB
     FM200800 19008KT 5SM SHRA VCTS OVC010CB
      AMD LTD TO CLD VIS AND WIND=

USA.gov is the U.S. government's official web portal to all federal, state and local government web resources and services.